createdAt,value
2023-02-14T00:00:30.450Z,34.17
2023-02-14T00:02:57.352Z,33.63
2023-02-14T00:05:24.360Z,33.25
2023-02-14T00:07:51.044Z,34.45
2023-02-14T00:10:17.903Z,34.63
2023-02-14T00:12:44.595Z,31.60
2023-02-14T00:15:23.342Z,32.72
2023-02-14T00:17:55.885Z,32.88
2023-02-14T00:20:23.340Z,35.35
2023-02-14T00:22:50.114Z,37.65
2023-02-14T00:25:17.293Z,38.38
2023-02-14T00:27:43.995Z,37.20
2023-02-14T00:30:12.384Z,36.35
2023-02-14T00:32:42.789Z,35.97
2023-02-14T00:35:10.814Z,38.22
2023-02-14T00:37:37.472Z,36.35
2023-02-14T00:40:05.922Z,37.83
2023-02-14T00:42:32.648Z,37.30
2023-02-14T00:44:59.343Z,37.35
2023-02-14T00:47:26.164Z,36.08
2023-02-14T00:49:52.898Z,33.70
2023-02-14T00:52:19.587Z,38.45
2023-02-14T00:54:46.275Z,38.83
2023-02-14T00:57:13.030Z,40.53
2023-02-14T00:59:39.730Z,43.90
2023-02-14T01:02:06.531Z,42.40
2023-02-14T01:04:33.316Z,42.30
2023-02-14T01:07:00.011Z,40.05
2023-02-14T01:09:26.669Z,39.58
2023-02-14T01:11:53.450Z,39.30
2023-02-14T01:14:20.114Z,37.63
2023-02-14T01:16:46.841Z,40.58
2023-02-14T01:19:13.562Z,38.40
2023-02-14T01:21:41.307Z,39.45
2023-02-14T01:24:08.644Z,37.67
2023-02-14T01:26:35.509Z,36.33
2023-02-14T01:29:03.633Z,35.70
2023-02-14T01:31:32.688Z,37.28
2023-02-14T01:33:59.670Z,36.72
2023-02-14T01:36:36.162Z,35.55
2023-02-14T01:39:06.752Z,38.65
2023-02-14T01:41:34.972Z,39.38
2023-02-14T01:44:29.039Z,38.67
2023-02-14T01:46:56.156Z,42.35
2023-02-14T01:49:27.198Z,36.13
2023-02-14T01:52:03.960Z,40.47
2023-02-14T01:54:32.378Z,40.17
2023-02-14T01:57:01.294Z,40.80
2023-02-14T01:59:31.289Z,40.97
2023-02-14T02:01:58.255Z,40.03
2023-02-14T02:04:44.766Z,40.13
2023-02-14T02:07:17.204Z,41.85
2023-02-14T02:09:47.468Z,39.60
2023-02-14T02:12:14.265Z,40.78
2023-02-14T02:14:41.658Z,38.35
2023-02-14T02:18:05.406Z,38.05
2023-02-14T02:21:19.754Z,40.65
2023-02-14T02:24:11.253Z,42.67
2023-02-14T02:26:55.784Z,42.85
2023-02-14T02:29:28.573Z,45.80
2023-02-14T02:32:10.150Z,40.45
2023-02-14T02:34:55.217Z,42.97
2023-02-14T02:37:40.708Z,44.20
2023-02-14T02:40:26.474Z,49.42
2023-02-14T02:42:53.077Z,45.08
2023-02-14T02:45:58.137Z,45.90
2023-02-14T02:48:26.510Z,48.00
2023-02-14T02:51:14.765Z,45.20
2023-02-14T02:53:53.294Z,45.47
2023-02-14T02:56:46.190Z,46.25
2023-02-14T02:59:21.774Z,47.08
2023-02-14T03:02:01.897Z,48.38
2023-02-14T03:04:47.413Z,45.03
2023-02-14T03:07:32.747Z,40.45
2023-02-14T03:10:00.673Z,40.33
2023-02-14T03:12:33.511Z,41.65
2023-02-14T03:15:22.100Z,39.58
2023-02-14T03:17:51.656Z,45.63
2023-02-14T03:20:24.835Z,42.55
2023-02-14T03:23:28.153Z,42.13
2023-02-14T03:26:00.744Z,39.63
2023-02-14T03:28:51.739Z,45.75
2023-02-14T03:31:20.818Z,39.22
2023-02-14T03:33:58.311Z,41.72
2023-02-14T03:37:17.531Z,42.75
2023-02-14T03:40:11.307Z,39.72
2023-02-14T03:42:50.430Z,38.25
2023-02-14T03:45:25.737Z,41.75
2023-02-14T03:47:53.930Z,41.58
2023-02-14T03:50:20.867Z,42.45
2023-02-14T03:52:50.901Z,38.90
2023-02-14T03:55:20.526Z,43.17
2023-02-14T04:00:18.471Z,36.10
2023-02-14T04:02:53.624Z,38.92
2023-02-14T04:05:24.794Z,37.28
2023-02-14T04:07:57.402Z,37.45
2023-02-14T04:10:24.858Z,37.90
2023-02-14T04:12:51.910Z,39.60
2023-02-14T04:15:18.835Z,41.92
2023-02-14T04:18:04.164Z,42.38
2023-02-14T04:20:31.567Z,38.25
2023-02-14T04:22:58.634Z,38.83
2023-02-14T04:25:25.374Z,36.50
2023-02-14T04:27:52.106Z,35.70
2023-02-14T04:30:21.007Z,37.33
2023-02-14T04:32:47.846Z,39.63
2023-02-14T04:35:14.940Z,36.90
2023-02-14T04:37:41.926Z,40.20
2023-02-14T04:40:09.201Z,35.20
2023-02-14T04:42:35.927Z,35.22
2023-02-14T04:45:04.356Z,33.42
2023-02-14T04:47:31.250Z,30.95
2023-02-14T04:49:58.116Z,34.05
2023-02-14T04:52:24.809Z,32.80
2023-02-14T04:54:51.509Z,33.45
2023-02-14T04:57:18.318Z,40.33
2023-02-14T04:59:45.119Z,38.30
2023-02-14T05:02:11.986Z,39.83
2023-02-14T05:04:38.703Z,33.10
2023-02-14T05:07:05.539Z,33.75
2023-02-14T05:09:32.413Z,32.25
2023-02-14T05:11:59.133Z,50.78
2023-02-14T05:14:25.834Z,31.98
2023-02-14T05:16:52.533Z,35.95
2023-02-14T05:19:19.253Z,32.50
2023-02-14T05:21:45.960Z,34.78
2023-02-14T05:24:13.011Z,31.33
2023-02-14T05:26:41.085Z,34.15
2023-02-14T05:29:08.301Z,32.70
2023-02-14T05:31:35.119Z,35.40
2023-02-14T05:34:02.169Z,35.30
2023-02-14T05:36:28.893Z,33.53
2023-02-14T05:38:55.656Z,36.47
2023-02-14T05:41:22.356Z,33.55
2023-02-14T05:43:49.132Z,32.35
2023-02-14T05:46:16.013Z,37.28
2023-02-14T05:48:42.670Z,33.83
2023-02-14T05:51:10.780Z,34.33
2023-02-14T05:53:37.924Z,33.40
2023-02-14T05:56:05.203Z,28.23
2023-02-14T05:58:32.188Z,29.30
2023-02-14T06:00:59.676Z,27.30
2023-02-14T06:03:26.993Z,31.25
2023-02-14T06:05:53.746Z,32.08
2023-02-14T06:08:20.490Z,32.85
2023-02-14T06:10:47.203Z,36.20
2023-02-14T06:13:14.055Z,38.10
2023-02-14T06:15:40.827Z,34.38
2023-02-14T06:18:08.018Z,35.55
2023-02-14T06:20:34.823Z,32.25
2023-02-14T06:23:02.015Z,32.40
2023-02-14T06:25:28.784Z,36.17
2023-02-14T06:27:57.049Z,38.45
2023-02-14T06:30:24.332Z,32.97
2023-02-14T06:32:51.592Z,37.13
2023-02-14T06:35:18.547Z,42.78
2023-02-14T06:37:45.461Z,36.53
2023-02-14T06:40:12.908Z,38.15
2023-02-14T06:42:40.097Z,36.30
2023-02-14T06:45:07.183Z,35.33
2023-02-14T06:47:35.133Z,38.03
2023-02-14T06:50:04.347Z,40.67
2023-02-14T06:52:34.220Z,43.42
2023-02-14T06:55:00.897Z,49.40
2023-02-14T06:57:28.084Z,45.25
2023-02-14T06:59:55.115Z,39.60
2023-02-14T07:02:24.677Z,36.65
2023-02-14T07:04:51.737Z,36.58
2023-02-14T07:07:18.410Z,36.28
2023-02-14T07:09:45.016Z,32.30
2023-02-14T07:12:11.691Z,34.95
2023-02-14T07:14:38.364Z,39.60
2023-02-14T07:17:05.183Z,34.13
2023-02-14T07:19:31.834Z,36.97
2023-02-14T07:21:59.107Z,34.72
2023-02-14T07:24:26.805Z,34.20
2023-02-14T07:26:53.520Z,37.85
2023-02-14T07:29:20.459Z,33.78
2023-02-14T07:31:47.270Z,35.08
2023-02-14T07:34:13.978Z,34.67
2023-02-14T07:36:40.764Z,35.20
2023-02-14T07:39:07.523Z,41.53
2023-02-14T07:41:34.267Z,35.92
2023-02-14T07:44:00.989Z,35.30
2023-02-14T07:46:27.706Z,31.23
2023-02-14T07:48:54.446Z,28.45
2023-02-14T07:51:21.232Z,32.30
2023-02-14T07:53:48.454Z,30.80
2023-02-14T07:56:15.167Z,30.40
2023-02-14T07:58:41.891Z,23.02
2023-02-14T08:01:08.780Z,20.83
2023-02-14T08:03:35.434Z,29.95
2023-02-14T08:06:02.117Z,18.60
2023-02-14T08:08:30.784Z,18.50
2023-02-14T08:10:58.077Z,18.10
2023-02-14T08:13:24.924Z,20.63
2023-02-14T08:16:07.666Z,16.58
2023-02-14T08:18:41.602Z,18.25
2023-02-14T08:21:10.216Z,17.00
2023-02-14T08:23:37.695Z,18.10
2023-02-14T08:26:07.260Z,18.35
2023-02-14T08:28:34.978Z,17.25
2023-02-14T08:31:03.361Z,20.05
2023-02-14T08:33:31.116Z,18.67
2023-02-14T08:35:57.799Z,17.48
2023-02-14T08:38:24.533Z,19.33
2023-02-14T08:40:51.281Z,20.08
2023-02-14T08:43:17.957Z,18.42
2023-02-14T08:45:45.041Z,19.27
2023-02-14T08:48:13.052Z,19.95
2023-02-14T08:50:40.295Z,20.27
2023-02-14T08:53:08.803Z,17.65
2023-02-14T08:55:36.111Z,19.20
2023-02-14T08:58:03.714Z,19.30
2023-02-14T09:00:31.304Z,20.60
2023-02-14T09:02:58.129Z,19.63
2023-02-14T09:05:25.186Z,19.40
2023-02-14T09:07:52.042Z,21.15
2023-02-14T09:10:18.890Z,19.80
2023-02-14T09:12:45.560Z,20.75
2023-02-14T09:15:12.803Z,21.65
2023-02-14T09:17:40.069Z,20.67
2023-02-14T09:20:11.278Z,18.75
2023-02-14T09:22:38.021Z,19.75
2023-02-14T09:25:05.239Z,18.38
2023-02-14T09:27:33.303Z,19.17
2023-02-14T09:30:00.283Z,19.25
2023-02-14T09:32:29.182Z,19.80
2023-02-14T09:35:14.723Z,18.92
2023-02-14T09:37:41.637Z,22.05
2023-02-14T09:40:09.040Z,16.63
2023-02-14T09:43:34.250Z,15.98
2023-02-14T09:46:02.582Z,18.05
2023-02-14T09:48:33.472Z,19.85
2023-02-14T09:51:06.043Z,23.90
2023-02-14T09:53:37.171Z,17.00
2023-02-14T09:56:22.306Z,17.20
2023-02-14T09:59:16.119Z,16.77
2023-02-14T10:04:38.184Z,14.60
2023-02-14T10:07:56.677Z,15.88
2023-02-14T10:10:30.960Z,18.13
2023-02-14T10:13:26.598Z,15.52
2023-02-14T10:16:27.303Z,15.90
2023-02-14T10:18:58.753Z,17.75
2023-02-14T10:21:36.638Z,20.20
2023-02-14T10:24:23.333Z,49.78
2023-02-14T10:26:50.756Z,18.23
2023-02-14T10:29:19.208Z,13.65
2023-02-14T10:32:00.498Z,14.00
2023-02-14T10:34:43.797Z,13.82
2023-02-14T10:37:32.330Z,15.07
2023-02-14T10:40:30.099Z,16.30
2023-02-14T10:42:59.546Z,18.77
2023-02-14T10:45:29.220Z,13.90
2023-02-14T10:48:32.947Z,13.63
2023-02-14T10:51:15.735Z,11.63
2023-02-14T10:53:54.485Z,12.32
2023-02-14T10:56:27.028Z,12.85
2023-02-14T10:58:55.840Z,14.10
2023-02-14T11:01:22.763Z,11.88
2023-02-14T11:04:04.242Z,11.73
2023-02-14T11:06:31.297Z,11.48
2023-02-14T11:08:58.884Z,12.88
2023-02-14T11:11:31.477Z,11.48
2023-02-14T11:13:58.156Z,10.80
2023-02-14T11:16:35.104Z,9.98
2023-02-14T11:19:14.806Z,9.55
2023-02-14T11:21:43.960Z,11.50
2023-02-14T11:27:10.698Z,15.25
2023-02-14T11:29:48.189Z,11.45
2023-02-14T11:32:20.709Z,8.80
2023-02-14T11:35:09.827Z,9.45
2023-02-14T11:37:42.873Z,10.10
2023-02-14T11:40:32.587Z,10.73
2023-02-14T11:43:14.010Z,11.55
2023-02-14T11:45:43.713Z,10.05
2023-02-14T11:48:39.585Z,8.00
2023-02-14T11:51:14.086Z,10.25
2023-02-14T11:53:56.051Z,19.92
2023-02-14T11:56:23.807Z,11.07
2023-02-14T11:59:16.676Z,14.52
2023-02-14T12:01:46.376Z,15.98
2023-02-14T12:04:32.771Z,11.10
2023-02-14T12:07:34.056Z,14.93
2023-02-14T12:10:17.768Z,9.98
2023-02-14T12:12:55.397Z,9.25
2023-02-14T12:15:25.215Z,8.45
2023-02-14T12:17:57.166Z,8.80
2023-02-14T12:20:43.014Z,11.43
2023-02-14T12:23:19.646Z,8.15
2023-02-14T12:25:54.774Z,7.40
2023-02-14T12:28:41.440Z,8.38
2023-02-14T12:31:12.148Z,7.15
2023-02-14T12:33:39.909Z,7.95
2023-02-14T12:36:17.806Z,8.48
2023-02-14T12:38:52.357Z,7.50
2023-02-14T12:41:27.850Z,7.68
2023-02-14T12:43:59.353Z,7.45
2023-02-14T12:46:47.960Z,7.47
2023-02-14T12:49:29.453Z,8.13
2023-02-14T12:54:37.664Z,7.75
2023-02-14T12:57:46.045Z,7.93
2023-02-14T13:00:30.903Z,7.32
2023-02-14T13:02:57.561Z,7.68
2023-02-14T13:05:51.738Z,10.30
2023-02-14T13:08:24.381Z,9.13
2023-02-14T13:11:00.239Z,9.98
2023-02-14T13:13:33.224Z,9.40
2023-02-14T13:16:27.325Z,8.93
2023-02-14T13:19:01.579Z,9.75
2023-02-14T13:21:31.652Z,9.50
2023-02-14T13:24:16.952Z,8.57
2023-02-14T13:26:46.271Z,7.65
2023-02-14T13:31:47.841Z,7.63
2023-02-14T13:34:28.188Z,7.55
2023-02-14T13:36:57.490Z,7.07
2023-02-14T13:39:45.599Z,9.80
2023-02-14T13:42:12.844Z,9.57
2023-02-14T13:44:44.079Z,9.27
2023-02-14T13:47:23.714Z,10.00
2023-02-14T13:49:54.102Z,7.60
2023-02-14T13:52:42.126Z,9.15
2023-02-14T13:55:20.513Z,7.30
2023-02-14T13:58:04.836Z,7.82
2023-02-14T14:00:44.185Z,6.85
2023-02-14T14:03:18.162Z,7.38
2023-02-14T14:06:10.718Z,6.60
2023-02-14T14:08:52.325Z,7.43
2023-02-14T14:13:58.859Z,6.13
2023-02-14T14:16:28.540Z,6.95
2023-02-14T14:19:01.069Z,8.18
2023-02-14T14:21:32.792Z,15.18
2023-02-14T14:24:18.062Z,12.20
2023-02-14T14:27:18.158Z,9.25
2023-02-14T14:32:34.783Z,13.77
2023-02-14T14:35:26.568Z,7.75
2023-02-14T14:37:57.516Z,8.52
2023-02-14T14:40:31.493Z,8.48
2023-02-14T14:43:14.325Z,10.00
2023-02-14T14:45:41.917Z,8.15
2023-02-14T14:48:14.403Z,8.80
2023-02-14T14:50:44.318Z,7.53
2023-02-14T14:53:21.696Z,8.98
2023-02-14T14:55:52.195Z,8.02
2023-02-14T14:58:35.145Z,9.27
2023-02-14T15:01:02.674Z,8.43
2023-02-14T15:03:29.881Z,8.48
2023-02-14T15:06:18.145Z,8.00
2023-02-14T15:08:45.562Z,18.48
2023-02-14T15:11:39.952Z,15.10
2023-02-14T15:14:11.192Z,11.35
2023-02-14T15:16:50.103Z,13.52
2023-02-14T15:19:21.834Z,10.43
2023-02-14T15:21:48.622Z,10.82
2023-02-14T15:24:16.789Z,18.05
2023-02-14T15:26:45.964Z,16.00
2023-02-14T15:29:25.274Z,10.43
2023-02-14T15:31:52.927Z,11.23
2023-02-14T15:34:23.837Z,15.85
2023-02-14T15:36:53.985Z,18.73
2023-02-14T15:39:22.755Z,18.70
2023-02-14T15:41:53.795Z,16.48
2023-02-14T15:44:24.977Z,19.23
2023-02-14T15:47:01.759Z,30.13
2023-02-14T15:49:34.991Z,23.80
2023-02-14T15:52:05.568Z,11.10
2023-02-14T15:54:41.914Z,19.45
2023-02-14T15:57:20.143Z,21.98
2023-02-14T15:59:47.369Z,12.07
2023-02-14T16:02:19.880Z,12.23
2023-02-14T16:04:46.637Z,29.35
2023-02-14T16:07:21.052Z,19.65
2023-02-14T16:09:48.584Z,15.15
2023-02-14T16:12:31.600Z,15.93
2023-02-14T16:15:20.200Z,19.45
2023-02-14T16:17:47.536Z,17.90
2023-02-14T16:20:43.414Z,21.10
2023-02-14T16:23:22.302Z,17.65
2023-02-14T16:25:49.554Z,15.18
2023-02-14T16:28:16.400Z,17.13
2023-02-14T16:30:44.661Z,17.67
2023-02-14T16:33:23.268Z,17.17
2023-02-14T16:35:50.606Z,17.65
2023-02-14T16:38:19.692Z,15.65
2023-02-14T16:40:54.569Z,16.95
2023-02-14T16:43:21.692Z,17.65
2023-02-14T16:45:48.720Z,14.10
2023-02-14T16:48:18.115Z,13.98
2023-02-14T16:53:21.680Z,12.68
2023-02-14T16:55:48.975Z,12.95
2023-02-14T16:58:15.833Z,14.05
2023-02-14T17:00:42.541Z,14.10
2023-02-14T17:03:11.550Z,14.43
2023-02-14T17:05:40.196Z,14.98
2023-02-14T17:08:09.149Z,14.90
2023-02-14T17:10:36.063Z,14.30
2023-02-14T17:13:03.508Z,13.15
2023-02-14T17:15:30.597Z,18.10
2023-02-14T17:18:01.835Z,22.63
2023-02-14T17:20:29.777Z,27.75
2023-02-14T17:22:57.603Z,22.48
2023-02-14T17:25:24.289Z,15.65
2023-02-14T17:27:51.080Z,16.13
2023-02-14T17:30:17.989Z,14.10
2023-02-14T17:32:44.982Z,27.60
2023-02-14T17:35:12.052Z,71.38
2023-02-14T17:37:38.741Z,67.78
2023-02-14T17:40:06.011Z,54.13
2023-02-14T17:42:33.847Z,31.70
2023-02-14T17:45:01.347Z,38.00
2023-02-14T17:47:29.501Z,39.13
2023-02-14T17:49:57.261Z,50.63
2023-02-14T17:52:24.598Z,36.58
2023-02-14T17:54:51.324Z,24.58
2023-02-14T17:57:18.065Z,22.92
2023-02-14T17:59:45.492Z,29.80
2023-02-14T18:02:12.692Z,22.52
2023-02-14T18:04:39.454Z,17.13
2023-02-14T18:07:06.207Z,22.58
2023-02-14T18:09:32.962Z,17.73
2023-02-14T18:11:59.661Z,18.77
2023-02-14T18:14:26.598Z,20.70
2023-02-14T18:16:53.257Z,18.73
2023-02-14T18:19:20.023Z,16.90
2023-02-14T18:21:46.773Z,17.90
2023-02-14T18:24:15.606Z,17.67
2023-02-14T18:26:43.191Z,18.40
2023-02-14T18:29:10.908Z,19.75
2023-02-14T18:31:39.518Z,19.48
2023-02-14T18:34:07.387Z,20.90
2023-02-14T18:36:39.788Z,24.08
2023-02-14T18:39:07.028Z,22.35
2023-02-14T18:41:33.804Z,20.00
2023-02-14T18:44:01.235Z,22.02
2023-02-14T18:46:31.330Z,19.70
2023-02-14T18:48:58.117Z,21.02
2023-02-14T18:51:28.097Z,23.45
2023-02-14T18:53:56.676Z,20.25
2023-02-14T18:56:26.598Z,22.98
2023-02-14T18:59:13.636Z,22.08
2023-02-14T19:01:43.447Z,19.10
2023-02-14T19:04:12.265Z,18.95
2023-02-14T19:06:40.963Z,18.95
2023-02-14T19:09:13.585Z,17.80
2023-02-14T19:11:40.903Z,19.23
2023-02-14T19:14:10.322Z,19.65
2023-02-14T19:19:11.011Z,17.88
2023-02-14T19:21:37.688Z,18.40
2023-02-14T19:24:09.381Z,17.38
2023-02-14T19:26:40.852Z,17.75
2023-02-14T19:29:13.071Z,19.92
2023-02-14T19:31:43.937Z,20.42
2023-02-14T19:34:23.203Z,19.55
2023-02-14T19:36:51.488Z,22.40
2023-02-14T19:39:19.181Z,19.38
2023-02-14T19:41:46.829Z,19.33
2023-02-14T19:44:14.422Z,21.13
2023-02-14T19:46:42.933Z,17.00
2023-02-14T19:49:15.058Z,18.30
2023-02-14T19:51:41.861Z,18.05
2023-02-14T19:54:12.738Z,19.83
2023-02-14T19:56:42.204Z,18.08
2023-02-14T19:59:09.605Z,18.88
2023-02-14T20:01:46.251Z,18.10
2023-02-14T20:04:16.165Z,20.13
2023-02-14T20:06:43.351Z,19.75
2023-02-14T20:09:10.037Z,20.77
2023-02-14T20:11:41.465Z,20.90
2023-02-14T20:14:08.801Z,20.42
2023-02-14T20:16:37.124Z,20.05
2023-02-14T20:19:12.139Z,19.92
2023-02-14T20:21:41.767Z,19.92
2023-02-14T20:24:09.364Z,19.15
2023-02-14T20:26:39.285Z,19.52
2023-02-14T20:29:06.955Z,19.85
2023-02-14T20:31:34.248Z,19.90
2023-02-14T20:34:01.695Z,19.60
2023-02-14T20:36:28.433Z,20.27
2023-02-14T20:38:59.819Z,19.23
2023-02-14T20:41:27.908Z,19.27
2023-02-14T20:43:55.552Z,19.30
2023-02-14T20:46:23.169Z,21.40
2023-02-14T20:48:51.078Z,20.52
2023-02-14T20:51:19.645Z,19.75
2023-02-14T20:53:46.679Z,20.35
2023-02-14T20:56:14.378Z,19.95
2023-02-14T20:58:41.494Z,21.15
2023-02-14T21:01:10.391Z,19.75
2023-02-14T21:03:37.627Z,18.00
2023-02-14T21:06:05.702Z,18.38
2023-02-14T21:08:33.235Z,20.10
2023-02-14T21:11:00.264Z,19.10
2023-02-14T21:13:27.226Z,20.20
2023-02-14T21:15:53.994Z,19.10
2023-02-14T21:18:21.046Z,20.58
2023-02-14T21:20:47.832Z,19.00
2023-02-14T21:23:14.597Z,17.48
2023-02-14T21:25:41.229Z,18.52
2023-02-14T21:28:07.882Z,19.05
2023-02-14T21:30:34.596Z,18.55
2023-02-14T21:33:01.310Z,18.45
2023-02-14T21:35:28.117Z,20.60
2023-02-14T21:37:54.778Z,18.38
2023-02-14T21:40:22.657Z,20.38
2023-02-14T21:42:50.411Z,18.95
2023-02-14T21:45:35.626Z,19.67
2023-02-14T21:48:20.826Z,17.08
2023-02-14T21:50:47.606Z,17.17
2023-02-14T21:53:14.346Z,17.40
2023-02-14T21:55:42.777Z,17.80
2023-02-14T21:58:09.503Z,20.05
2023-02-14T22:00:36.498Z,18.85
2023-02-14T22:03:03.214Z,17.95
2023-02-14T22:05:29.875Z,17.13
2023-02-14T22:07:56.513Z,15.73
2023-02-14T22:10:23.222Z,15.52
2023-02-14T22:12:49.965Z,15.07
2023-02-14T22:15:16.687Z,16.73
2023-02-14T22:17:43.627Z,14.25
2023-02-14T22:20:10.665Z,14.65
2023-02-14T22:22:37.341Z,13.45
2023-02-14T22:25:04.172Z,14.20
2023-02-14T22:27:30.851Z,15.07
2023-02-14T22:29:57.633Z,15.25
2023-02-14T22:32:24.362Z,15.88
2023-02-14T22:34:51.182Z,16.00
2023-02-14T22:37:17.855Z,17.85
2023-02-14T22:39:44.501Z,18.10
2023-02-14T22:42:11.229Z,16.67
2023-02-14T22:44:37.859Z,16.95
2023-02-14T22:47:04.591Z,17.30
2023-02-14T22:49:31.369Z,17.33
2023-02-14T22:51:58.007Z,17.90
2023-02-14T22:54:24.741Z,17.23
2023-02-14T22:56:51.542Z,16.88
2023-02-14T22:59:21.407Z,17.20
2023-02-14T23:01:49.200Z,16.50
2023-02-14T23:04:17.801Z,15.32
2023-02-14T23:06:44.573Z,15.43
2023-02-14T23:09:12.731Z,14.63
2023-02-14T23:11:40.815Z,13.18
2023-02-14T23:14:26.724Z,13.35
2023-02-14T23:17:12.227Z,15.38
2023-02-14T23:19:57.675Z,13.43
2023-02-14T23:22:29.480Z,13.60
2023-02-14T23:24:58.361Z,12.02
2023-02-14T23:27:37.207Z,11.52
2023-02-14T23:30:06.431Z,11.93
2023-02-14T23:32:33.265Z,11.40
2023-02-14T23:35:00.122Z,10.77
2023-02-14T23:37:26.931Z,11.80
2023-02-14T23:39:53.633Z,10.57
2023-02-14T23:42:20.513Z,10.82
2023-02-14T23:44:47.604Z,11.02
2023-02-14T23:47:14.705Z,10.25
2023-02-14T23:49:41.788Z,10.00
2023-02-14T23:52:12.431Z,9.70
2023-02-14T23:54:39.500Z,8.90
2023-02-14T23:57:07.419Z,9.60
2023-02-14T23:59:34.657Z,9.38
